sensor_id;sensor_type;location;lat;lon;timestamp;P1;durP1;ratioP1;P2;durP2;ratioP2
12798;SDS011;19250;42.646;26.980;2023-08-31T13:34:31;6.20;;;5.63;;
12798;SDS011;19250;42.646;26.980;2023-08-31T13:36:58;6.15;;;5.47;;
12798;SDS011;19250;42.646;26.980;2023-08-31T16:57:08;1.40;;;0.40;;
12798;SDS011;19250;42.646;26.980;2023-08-31T16:59:35;0.25;;;0.25;;
12798;SDS011;19250;42.646;26.980;2023-08-31T17:02:02;0.90;;;0.90;;
12798;SDS011;19250;42.646;26.980;2023-08-31T17:04:30;0.60;;;0.60;;
12798;SDS011;19250;42.646;26.980;2023-08-31T17:06:57;0.15;;;0.15;;
12798;SDS011;19250;42.646;26.980;2023-08-31T17:09:25;0.10;;;0.10;;
12798;SDS011;19250;42.646;26.980;2023-08-31T17:11:54;0.20;;;0.20;;
12798;SDS011;19250;42.646;26.980;2023-08-31T17:14:21;0.17;;;0.17;;
12798;SDS011;19250;42.646;26.980;2023-08-31T17:16:48;0.10;;;0.10;;
12798;SDS011;19250;42.646;26.980;2023-08-31T17:19:15;0.20;;;0.20;;
12798;SDS011;19250;42.646;26.980;2023-08-31T17:21:42;0.10;;;0.10;;
12798;SDS011;19250;42.646;26.980;2023-08-31T17:24:10;0.10;;;0.10;;
12798;SDS011;19250;42.646;26.980;2023-08-31T17:26:37;0.60;;;0.60;;
12798;SDS011;19250;42.646;26.980;2023-08-31T17:29:06;0.40;;;0.40;;
12798;SDS011;19250;42.646;26.980;2023-08-31T17:31:33;0.17;;;0.17;;
12798;SDS011;19250;42.646;26.980;2023-08-31T17:34:00;0.40;;;0.40;;
12798;SDS011;19250;42.646;26.980;2023-08-31T17:36:29;0.10;;;0.10;;
12798;SDS011;19250;42.646;26.980;2023-08-31T17:38:56;0.50;;;0.50;;
12798;SDS011;19250;42.646;26.980;2023-08-31T17:41:23;0.10;;;0.10;;
12798;SDS011;19250;42.646;26.980;2023-08-31T17:43:51;0.38;;;0.38;;
12798;SDS011;19250;42.646;26.980;2023-08-31T17:46:19;0.30;;;0.30;;
12798;SDS011;19250;42.646;26.980;2023-08-31T17:48:47;0.80;;;0.80;;
12798;SDS011;19250;42.646;26.980;2023-08-31T17:51:14;0.70;;;0.70;;
12798;SDS011;19250;42.646;26.980;2023-08-31T17:53:41;0.70;;;0.60;;
12798;SDS011;19250;42.646;26.980;2023-08-31T17:56:09;0.38;;;0.38;;
12798;SDS011;19250;42.646;26.980;2023-08-31T17:58:37;0.82;;;0.82;;
12798;SDS011;19250;42.646;26.980;2023-08-31T18:01:04;4.80;;;4.50;;
12798;SDS011;19250;42.646;26.980;2023-08-31T18:03:33;0.70;;;0.70;;
12798;SDS011;19250;42.646;26.980;2023-08-31T18:06:00;0.10;;;0.10;;
12798;SDS011;19250;42.646;26.980;2023-08-31T18:08:28;0.20;;;0.20;;
12798;SDS011;19250;42.646;26.980;2023-08-31T18:10:55;1.23;;;1.13;;
12798;SDS011;19250;42.646;26.980;2023-08-31T18:13:26;0.20;;;0.20;;
12798;SDS011;19250;42.646;26.980;2023-08-31T18:15:53;0.20;;;0.20;;
12798;SDS011;19250;42.646;26.980;2023-08-31T18:18:20;0.40;;;0.40;;
12798;SDS011;19250;42.646;26.980;2023-08-31T18:20:49;0.10;;;0.10;;
12798;SDS011;19250;42.646;26.980;2023-08-31T18:23:16;0.30;;;0.30;;
12798;SDS011;19250;42.646;26.980;2023-08-31T18:25:45;0.10;;;0.10;;
12798;SDS011;19250;42.646;26.980;2023-08-31T18:28:13;0.20;;;0.20;;
12798;SDS011;19250;42.646;26.980;2023-08-31T18:30:40;0.20;;;0.20;;
12798;SDS011;19250;42.646;26.980;2023-08-31T18:33:16;0.32;;;0.32;;
12798;SDS011;19250;42.646;26.980;2023-08-31T18:35:49;0.70;;;0.50;;
12798;SDS011;19250;42.646;26.980;2023-08-31T18:38:17;0.30;;;0.30;;
12798;SDS011;19250;42.646;26.980;2023-08-31T18:40:45;0.20;;;0.20;;
12798;SDS011;19250;42.646;26.980;2023-08-31T18:43:12;0.38;;;0.38;;
12798;SDS011;19250;42.646;26.980;2023-08-31T18:45:42;0.10;;;0.10;;
12798;SDS011;19250;42.646;26.980;2023-08-31T18:48:10;0.50;;;0.50;;
12798;SDS011;19250;42.646;26.980;2023-08-31T18:50:38;0.10;;;0.10;;
12798;SDS011;19250;42.646;26.980;2023-08-31T18:53:07;0.10;;;0.10;;
12798;SDS011;19250;42.646;26.980;2023-08-31T18:55:35;0.80;;;0.80;;
12798;SDS011;19250;42.646;26.980;2023-08-31T18:58:03;0.40;;;0.40;;
12798;SDS011;19250;42.646;26.980;2023-08-31T19:00:31;0.10;;;0.10;;
12798;SDS011;19250;42.646;26.980;2023-08-31T19:02:58;0.20;;;0.20;;
12798;SDS011;19250;42.646;26.980;2023-08-31T19:05:26;0.17;;;0.17;;
12798;SDS011;19250;42.646;26.980;2023-08-31T19:07:53;1.23;;;0.70;;
12798;SDS011;19250;42.646;26.980;2023-08-31T19:10:22;0.45;;;0.45;;
12798;SDS011;19250;42.646;26.980;2023-08-31T19:12:49;0.10;;;0.10;;
12798;SDS011;19250;42.646;26.980;2023-08-31T19:15:17;0.10;;;0.10;;
12798;SDS011;19250;42.646;26.980;2023-08-31T19:17:45;0.17;;;0.15;;
12798;SDS011;19250;42.646;26.980;2023-08-31T19:20:15;0.10;;;0.10;;
12798;SDS011;19250;42.646;26.980;2023-08-31T19:22:43;0.60;;;0.60;;
12798;SDS011;19250;42.646;26.980;2023-08-31T19:25:11;0.40;;;0.40;;
12798;SDS011;19250;42.646;26.980;2023-08-31T19:27:40;1.40;;;1.30;;
12798;SDS011;19250;42.646;26.980;2023-08-31T19:30:08;0.10;;;0.10;;
12798;SDS011;19250;42.646;26.980;2023-08-31T19:32:35;0.10;;;0.10;;
12798;SDS011;19250;42.646;26.980;2023-08-31T19:35:03;0.15;;;0.15;;
12798;SDS011;19250;42.646;26.980;2023-08-31T19:37:31;0.17;;;0.17;;
12798;SDS011;19250;42.646;26.980;2023-08-31T19:39:59;1.10;;;0.40;;
12798;SDS011;19250;42.646;26.980;2023-08-31T19:42:29;0.60;;;0.60;;
12798;SDS011;19250;42.646;26.980;2023-08-31T19:44:58;0.85;;;0.85;;
12798;SDS011;19250;42.646;26.980;2023-08-31T19:47:25;0.20;;;0.20;;
12798;SDS011;19250;42.646;26.980;2023-08-31T19:49:52;0.30;;;0.30;;
12798;SDS011;19250;42.646;26.980;2023-08-31T19:52:19;0.10;;;0.10;;
12798;SDS011;19250;42.646;26.980;2023-08-31T19:54:47;0.20;;;0.20;;
12798;SDS011;19250;42.646;26.980;2023-08-31T19:57:16;0.10;;;0.10;;
12798;SDS011;19250;42.646;26.980;2023-08-31T19:59:43;0.30;;;0.30;;
12798;SDS011;19250;42.646;26.980;2023-08-31T20:02:12;0.10;;;0.10;;
12798;SDS011;19250;42.646;26.980;2023-08-31T20:04:40;0.10;;;0.10;;
12798;SDS011;19250;42.646;26.980;2023-08-31T20:07:08;0.50;;;0.50;;
12798;SDS011;19250;42.646;26.980;2023-08-31T20:09:36;0.10;;;0.10;;
12798;SDS011;19250;42.646;26.980;2023-08-31T20:12:04;0.20;;;0.20;;
12798;SDS011;19250;42.646;26.980;2023-08-31T20:14:31;0.10;;;0.10;;
12798;SDS011;19250;42.646;26.980;2023-08-31T20:16:59;0.22;;;0.22;;
12798;SDS011;19250;42.646;26.980;2023-08-31T20:19:27;0.10;;;0.10;;
12798;SDS011;19250;42.646;26.980;2023-08-31T20:21:55;0.10;;;0.10;;
12798;SDS011;19250;42.646;26.980;2023-08-31T20:24:22;0.10;;;0.10;;
12798;SDS011;19250;42.646;26.980;2023-08-31T20:26:49;0.20;;;0.20;;
12798;SDS011;19250;42.646;26.980;2023-08-31T20:29:17;0.10;;;0.10;;
12798;SDS011;19250;42.646;26.980;2023-08-31T20:31:45;0.57;;;0.57;;
12798;SDS011;19250;42.646;26.980;2023-08-31T20:34:12;0.10;;;0.10;;
12798;SDS011;19250;42.646;26.980;2023-08-31T20:36:41;0.20;;;0.20;;
12798;SDS011;19250;42.646;26.980;2023-08-31T20:39:10;2.00;;;1.90;;
12798;SDS011;19250;42.646;26.980;2023-08-31T20:41:39;0.10;;;0.10;;
12798;SDS011;19250;42.646;26.980;2023-08-31T20:44:07;0.10;;;0.10;;
12798;SDS011;19250;42.646;26.980;2023-08-31T20:46:34;0.40;;;0.40;;
12798;SDS011;19250;42.646;26.980;2023-08-31T20:49:02;0.10;;;0.10;;
12798;SDS011;19250;42.646;26.980;2023-08-31T20:51:31;0.20;;;0.20;;
12798;SDS011;19250;42.646;26.980;2023-08-31T20:54:02;0.40;;;0.40;;
12798;SDS011;19250;42.646;26.980;2023-08-31T20:56:30;0.10;;;0.10;;
12798;SDS011;19250;42.646;26.980;2023-08-31T20:58:57;0.20;;;0.20;;
12798;SDS011;19250;42.646;26.980;2023-08-31T21:01:25;0.10;;;0.10;;
12798;SDS011;19250;42.646;26.980;2023-08-31T21:03:54;0.60;;;0.60;;
12798;SDS011;19250;42.646;26.980;2023-08-31T21:06:23;0.28;;;0.28;;
12798;SDS011;19250;42.646;26.980;2023-08-31T21:08:51;4.68;;;4.28;;
12798;SDS011;19250;42.646;26.980;2023-08-31T21:11:20;10.60;;;9.50;;
12798;SDS011;19250;42.646;26.980;2023-08-31T21:13:48;10.25;;;9.35;;
12798;SDS011;19250;42.646;26.980;2023-08-31T21:16:16;11.10;;;9.85;;
12798;SDS011;19250;42.646;26.980;2023-08-31T21:18:45;11.93;;;10.60;;
12798;SDS011;19250;42.646;26.980;2023-08-31T21:21:13;11.70;;;10.50;;
12798;SDS011;19250;42.646;26.980;2023-08-31T21:23:40;12.00;;;10.80;;
12798;SDS011;19250;42.646;26.980;2023-08-31T21:26:07;12.13;;;10.52;;
12798;SDS011;19250;42.646;26.980;2023-08-31T21:28:36;11.88;;;10.68;;
12798;SDS011;19250;42.646;26.980;2023-08-31T21:31:03;12.00;;;10.68;;
12798;SDS011;19250;42.646;26.980;2023-08-31T21:33:30;12.73;;;11.05;;
12798;SDS011;19250;42.646;26.980;2023-08-31T21:35:58;12.90;;;11.73;;
12798;SDS011;19250;42.646;26.980;2023-08-31T21:38:28;14.23;;;12.10;;
12798;SDS011;19250;42.646;26.980;2023-08-31T21:40:55;13.88;;;11.30;;
12798;SDS011;19250;42.646;26.980;2023-08-31T21:43:22;13.00;;;11.68;;
12798;SDS011;19250;42.646;26.980;2023-08-31T21:45:51;12.70;;;11.50;;
12798;SDS011;19250;42.646;26.980;2023-08-31T21:48:18;12.63;;;10.93;;
12798;SDS011;19250;42.646;26.980;2023-08-31T21:50:46;11.60;;;10.50;;
12798;SDS011;19250;42.646;26.980;2023-08-31T21:53:14;11.60;;;10.40;;
12798;SDS011;19250;42.646;26.980;2023-08-31T21:55:41;13.73;;;10.18;;
12798;SDS011;19250;42.646;26.980;2023-08-31T21:58:08;10.82;;;9.63;;
12798;SDS011;19250;42.646;26.980;2023-08-31T22:00:36;9.85;;;8.90;;
12798;SDS011;19250;42.646;26.980;2023-08-31T22:03:05;9.63;;;8.63;;
12798;SDS011;19250;42.646;26.980;2023-08-31T22:05:33;9.48;;;8.43;;
12798;SDS011;19250;42.646;26.980;2023-08-31T22:08:00;8.68;;;7.70;;
12798;SDS011;19250;42.646;26.980;2023-08-31T22:10:28;8.00;;;6.28;;
12798;SDS011;19250;42.646;26.980;2023-08-31T22:12:55;8.57;;;6.18;;
12798;SDS011;19250;42.646;26.980;2023-08-31T22:15:23;6.47;;;5.93;;
12798;SDS011;19250;42.646;26.980;2023-08-31T22:17:53;5.82;;;5.28;;
12798;SDS011;19250;42.646;26.980;2023-08-31T22:20:24;6.00;;;5.40;;
12798;SDS011;19250;42.646;26.980;2023-08-31T22:22:56;6.40;;;5.80;;
12798;SDS011;19250;42.646;26.980;2023-08-31T22:25:25;6.97;;;5.23;;
12798;SDS011;19250;42.646;26.980;2023-08-31T22:27:54;7.18;;;5.57;;
12798;SDS011;19250;42.646;26.980;2023-08-31T22:30:23;6.32;;;5.40;;
12798;SDS011;19250;42.646;26.980;2023-08-31T22:32:50;5.40;;;4.90;;
12798;SDS011;19250;42.646;26.980;2023-08-31T22:35:18;5.90;;;5.20;;
12798;SDS011;19250;42.646;26.980;2023-08-31T22:37:47;5.35;;;4.85;;
12798;SDS011;19250;42.646;26.980;2023-08-31T22:40:15;6.13;;;5.40;;
12798;SDS011;19250;42.646;26.980;2023-08-31T22:42:42;6.35;;;5.63;;
12798;SDS011;19250;42.646;26.980;2023-08-31T22:45:09;6.00;;;5.40;;
12798;SDS011;19250;42.646;26.980;2023-08-31T22:47:37;7.22;;;4.97;;
12798;SDS011;19250;42.646;26.980;2023-08-31T22:50:05;6.85;;;6.20;;
12798;SDS011;19250;42.646;26.980;2023-08-31T22:52:33;6.93;;;6.32;;
12798;SDS011;19250;42.646;26.980;2023-08-31T22:55:02;8.93;;;6.55;;
12798;SDS011;19250;42.646;26.980;2023-08-31T22:57:30;7.75;;;6.90;;
12798;SDS011;19250;42.646;26.980;2023-08-31T22:59:57;7.80;;;6.85;;
12798;SDS011;19250;42.646;26.980;2023-08-31T23:02:25;8.73;;;7.65;;
12798;SDS011;19250;42.646;26.980;2023-08-31T23:04:52;9.02;;;8.10;;
12798;SDS011;19250;42.646;26.980;2023-08-31T23:07:19;7.90;;;7.20;;
12798;SDS011;19250;42.646;26.980;2023-08-31T23:09:46;7.70;;;6.75;;
12798;SDS011;19250;42.646;26.980;2023-08-31T23:12:15;8.13;;;6.63;;
12798;SDS011;19250;42.646;26.980;2023-08-31T23:14:43;8.87;;;7.00;;
12798;SDS011;19250;42.646;26.980;2023-08-31T23:17:11;7.40;;;6.70;;
12798;SDS011;19250;42.646;26.980;2023-08-31T23:19:38;8.40;;;7.47;;
12798;SDS011;19250;42.646;26.980;2023-08-31T23:22:06;7.20;;;6.50;;
12798;SDS011;19250;42.646;26.980;2023-08-31T23:24:34;7.50;;;6.80;;
12798;SDS011;19250;42.646;26.980;2023-08-31T23:27:02;8.15;;;7.35;;
12798;SDS011;19250;42.646;26.980;2023-08-31T23:29:31;8.90;;;7.03;;
12798;SDS011;19250;42.646;26.980;2023-08-31T23:31:58;8.68;;;7.80;;
12798;SDS011;19250;42.646;26.980;2023-08-31T23:34:25;9.10;;;8.20;;
12798;SDS011;19250;42.646;26.980;2023-08-31T23:36:52;8.75;;;7.85;;
12798;SDS011;19250;42.646;26.980;2023-08-31T23:39:20;9.20;;;8.30;;
12798;SDS011;19250;42.646;26.980;2023-08-31T23:41:47;8.93;;;8.07;;
12798;SDS011;19250;42.646;26.980;2023-08-31T23:44:14;9.02;;;8.20;;
12798;SDS011;19250;42.646;26.980;2023-08-31T23:46:43;8.90;;;8.00;;
12798;SDS011;19250;42.646;26.980;2023-08-31T23:49:10;9.40;;;8.45;;
12798;SDS011;19250;42.646;26.980;2023-08-31T23:51:38;10.48;;;8.30;;
12798;SDS011;19250;42.646;26.980;2023-08-31T23:54:05;9.18;;;8.27;;
12798;SDS011;19250;42.646;26.980;2023-08-31T23:56:32;9.68;;;8.25;;
12798;SDS011;19250;42.646;26.980;2023-08-31T23:59:00;10.57;;;7.95;;
